Time;durP1;ratioP1;P1;durP2;ratioP2;P2;SDS_P1;SDS_P2;PMS_P1;PMS_P2;Temp;Humidity;BMP_temperature;BMP_pressure;BME280_temperature;BME280_humidity;BME280_pressure;Samples;Min_cycle;Max_cycle;Signal;HPM_P1;HPM_P2
2021/11/23 00:00:00;;;;;;;0.83;0.43;;;10.00;99.90;;;;;;4991667;28;20227;-82
2021/11/23 00:02:26;;;;;;;0.40;0.40;;;10.00;99.90;;;;;;4993448;28;20191;-81
2021/11/23 00:04:52;;;;;;;4.07;0.80;;;10.00;99.90;;;;;;4995355;28;20192;-80
2021/11/23 00:07:18;;;;;;;3.37;0.57;;;10.00;99.90;;;;;;4977493;28;20334;-82
2021/11/23 00:09:44;;;;;;;0.10;0.10;;;10.00;99.90;;;;;;4993556;28;20236;-83
2021/11/23 00:12:10;;;;;;;0.20;0.20;;;10.00;99.90;;;;;;4992396;28;20326;-81
2021/11/23 00:14:36;;;;;;;0.40;0.40;;;10.00;99.90;;;;;;4994140;28;20218;-83
2021/11/23 00:17:02;;;;;;;1.20;0.33;;;10.00;99.90;;;;;;4979911;28;20227;-83
2021/11/23 00:19:28;;;;;;;0.30;0.30;;;10.00;99.90;;;;;;4998065;28;20225;-82
2021/11/23 00:21:53;;;;;;;7.73;1.27;;;10.00;99.90;;;;;;4980259;28;20219;-84
2021/11/23 00:24:19;;;;;;;0.50;0.50;;;10.00;99.90;;;;;;4995977;28;20274;-82
2021/11/23 00:26:45;;;;;;;5.50;0.47;;;10.00;99.90;;;;;;4978534;28;20231;-82
2021/11/23 00:29:11;;;;;;;0.43;0.17;;;10.00;99.90;;;;;;4991869;28;20206;-83
2021/11/23 00:31:36;;;;;;;3.60;0.93;;;10.00;99.90;;;;;;4996372;28;20606;-81
2021/11/23 00:34:03;;;;;;;0.30;0.20;;;10.00;99.90;;;;;;4997567;28;20234;-82
2021/11/23 00:36:30;;;;;;;2.37;0.30;;;10.00;99.90;;;;;;4972551;28;20255;-83
2021/11/23 00:38:56;;;;;;;8.30;0.70;;;10.00;99.90;;;;;;4988862;28;20715;-83
2021/11/23 00:41:22;;;;;;;0.50;0.50;;;10.00;99.90;;;;;;4996531;28;20196;-83
2021/11/23 00:43:48;;;;;;;0.80;0.70;;;10.10;99.90;;;;;;4995069;28;20675;-83
2021/11/23 00:46:14;;;;;;;0.73;0.60;;;10.10;99.90;;;;;;4993551;28;20239;-84
2021/11/23 00:48:39;;;;;;;0.33;0.33;;;10.10;99.90;;;;;;4991547;28;20219;-83
2021/11/23 00:51:06;;;;;;;0.23;0.20;;;10.10;99.90;;;;;;4996994;28;20947;-83
2021/11/23 00:53:33;;;;;;;2.43;0.70;;;10.10;99.90;;;;;;4996282;28;20679;-83
2021/11/23 00:56:03;;;;;;;0.33;0.30;;;10.10;99.90;;;;;;4996685;28;20219;-82
2021/11/23 00:58:29;;;;;;;1.03;0.93;;;10.10;99.90;;;;;;4997686;28;20227;-80
2021/11/23 01:00:55;;;;;;;1.80;0.50;;;10.10;99.90;;;;;;4981370;28;20620;-82
2021/11/23 01:03:20;;;;;;;1.80;0.23;;;10.10;99.90;;;;;;4977201;28;20578;-82
2021/11/23 01:05:46;;;;;;;0.77;0.30;;;10.10;99.90;;;;;;4979203;28;20227;-84
2021/11/23 01:08:14;;;;;;;0.30;0.20;;;10.10;99.90;;;;;;4993015;28;20223;-82
2021/11/23 01:10:40;;;;;;;1.30;0.60;;;10.10;99.90;;;;;;4996014;28;20239;-82
2021/11/23 01:13:06;;;;;;;0.17;0.17;;;10.10;99.90;;;;;;4995410;28;20216;-82
2021/11/23 01:15:32;;;;;;;0.10;0.10;;;10.10;99.90;;;;;;4993586;28;20234;-82
2021/11/23 01:17:58;;;;;;;4.70;0.20;;;10.20;99.90;;;;;;4996556;28;20588;-82
2021/11/23 01:20:25;;;;;;;0.37;0.37;;;10.20;99.90;;;;;;4995921;28;20227;-83
2021/11/23 01:22:51;;;;;;;1.17;0.50;;;10.20;99.90;;;;;;4998030;28;20279;-83
2021/11/23 01:25:18;;;;;;;5.30;0.70;;;10.20;99.90;;;;;;4986914;28;20222;-82
2021/11/23 01:27:44;;;;;;;2.07;0.20;;;10.20;99.90;;;;;;4995889;28;20219;-83
2021/11/23 01:30:11;;;;;;;2.17;0.77;;;10.20;99.90;;;;;;4995637;28;20224;-84
2021/11/23 01:32:38;;;;;;;2.10;0.70;;;10.30;99.90;;;;;;4997130;28;20633;-83
2021/11/23 01:35:05;;;;;;;1.27;0.30;;;10.30;99.90;;;;;;4997737;28;20192;-83
2021/11/23 01:37:31;;;;;;;1.53;1.13;;;10.30;99.90;;;;;;4996110;28;20230;-83
2021/11/23 01:39:57;;;;;;;0.70;0.33;;;10.20;99.90;;;;;;4998315;28;20219;-83
2021/11/23 01:42:23;;;;;;;0.53;0.53;;;10.30;99.90;;;;;;4993898;28;20566;-83
2021/11/23 01:44:48;;;;;;;0.77;0.57;;;10.30;99.90;;;;;;4995986;28;20219;-82
2021/11/23 01:47:14;;;;;;;1.83;0.40;;;10.30;99.90;;;;;;4994159;28;20195;-83
2021/11/23 01:49:40;;;;;;;0.83;0.53;;;10.30;99.90;;;;;;4978815;28;20227;-82
2021/11/23 01:52:06;;;;;;;0.70;0.37;;;10.30;99.90;;;;;;4991835;28;20732;-83
2021/11/23 01:54:34;;;;;;;0.03;0.03;;;10.30;99.90;;;;;;4995854;28;20313;-83
2021/11/23 01:57:00;;;;;;;0.27;0.23;;;10.30;99.90;;;;;;4975846;28;20658;-83
2021/11/23 01:59:26;;;;;;;1.23;1.20;;;10.30;99.90;;;;;;4994045;28;20200;-82
2021/11/23 02:01:52;;;;;;;0.27;0.27;;;10.30;99.90;;;;;;4977221;28;21005;-82
2021/11/23 02:04:18;;;;;;;1.87;0.77;;;10.30;99.90;;;;;;4994059;28;20238;-83
2021/11/23 02:06:44;;;;;;;0.13;0.10;;;10.30;99.90;;;;;;5003579;28;20404;-83
2021/11/23 02:09:10;;;;;;;7.33;0.73;;;10.30;99.90;;;;;;4994862;28;20226;-82
2021/11/23 02:11:36;;;;;;;1.40;0.30;;;10.30;99.90;;;;;;4977208;28;20227;-82
2021/11/23 02:14:03;;;;;;;1.30;0.20;;;10.20;99.90;;;;;;5003404;28;20191;-83
2021/11/23 02:16:30;;;;;;;0.50;0.50;;;10.20;99.90;;;;;;4995438;28;20234;-83
2021/11/23 02:18:56;;;;;;;0.57;0.17;;;10.30;99.90;;;;;;4995455;28;20254;-82
2021/11/23 02:21:22;;;;;;;0.20;0.20;;;10.30;99.90;;;;;;4994722;28;20309;-83
2021/11/23 02:23:48;;;;;;;7.83;0.67;;;10.30;99.90;;;;;;4993189;28;20307;-84
2021/11/23 02:26:14;;;;;;;0.53;0.53;;;10.30;99.90;;;;;;4994425;28;20286;-83
2021/11/23 02:28:41;;;;;;;0.00;0.00;;;10.30;99.90;;;;;;4990645;28;20979;-83
2021/11/23 02:31:08;;;;;;;0.23;0.23;;;10.20;99.90;;;;;;4976873;28;20706;-82
2021/11/23 02:33:35;;;;;;;0.10;0.10;;;10.20;99.90;;;;;;4979590;28;20269;-82
2021/11/23 02:36:04;;;;;;;0.20;0.20;;;10.20;99.90;;;;;;4978127;28;20705;-82
2021/11/23 02:38:31;;;;;;;1.20;0.20;;;10.20;99.90;;;;;;4993674;28;20326;-82
2021/11/23 02:40:57;;;;;;;29.30;0.87;;;10.20;99.90;;;;;;4993750;28;20195;-83
2021/11/23 02:43:23;;;;;;;0.40;0.30;;;10.20;99.90;;;;;;4975024;28;20238;-83
2021/11/23 02:45:50;;;;;;;0.20;0.20;;;10.10;99.90;;;;;;4991363;28;20231;-83
2021/11/23 02:48:16;;;;;;;1.37;0.63;;;10.10;99.90;;;;;;4971345;28;20226;-83
2021/11/23 02:50:47;;;;;;;0.23;0.23;;;10.20;99.90;;;;;;4994724;28;20698;-82
2021/11/23 02:53:14;;;;;;;0.20;0.20;;;10.20;99.90;;;;;;4994252;28;20647;-82
2021/11/23 02:55:40;;;;;;;0.17;0.17;;;10.20;99.90;;;;;;4992483;28;20219;-82
2021/11/23 02:58:06;;;;;;;0.13;0.10;;;10.20;99.90;;;;;;4994751;28;21018;-82
2021/11/23 03:00:34;;;;;;;0.00;0.00;;;10.20;99.90;;;;;;4995195;28;20220;-82
2021/11/23 03:03:00;;;;;;;0.47;0.40;;;10.20;99.90;;;;;;4992794;28;20653;-83
2021/11/23 03:05:27;;;;;;;2.63;0.40;;;10.10;99.90;;;;;;4995731;28;20204;-82
2021/11/23 03:07:55;;;;;;;2.13;0.20;;;10.10;99.90;;;;;;4979392;28;20578;-82
2021/11/23 03:10:22;;;;;;;0.20;0.20;;;10.20;99.90;;;;;;4991807;28;20239;-82
2021/11/23 03:12:50;;;;;;;0.00;0.00;;;10.10;99.90;;;;;;4991622;28;20220;-82
2021/11/23 03:15:17;;;;;;;0.23;0.23;;;10.00;99.90;;;;;;4993963;28;20246;-81
2021/11/23 03:17:44;;;;;;;1.50;0.40;;;10.00;99.90;;;;;;4996069;28;20690;-83
2021/11/23 03:20:12;;;;;;;0.10;0.10;;;10.10;99.90;;;;;;4992724;28;20199;-83
2021/11/23 03:22:38;;;;;;;0.80;0.03;;;10.10;99.90;;;;;;4994848;28;20271;-81
2021/11/23 03:25:06;;;;;;;0.13;0.13;;;10.10;99.90;;;;;;4995300;28;20324;-83
2021/11/23 03:27:32;;;;;;;0.10;0.10;;;10.10;99.90;;;;;;4984774;28;20227;-82
2021/11/23 03:29:58;;;;;;;0.10;0.10;;;10.10;99.90;;;;;;4994494;28;20319;-82
2021/11/23 03:32:24;;;;;;;0.13;0.13;;;10.10;99.90;;;;;;4995407;28;20282;-82
2021/11/23 03:34:50;;;;;;;2.23;0.63;;;10.00;99.90;;;;;;4994755;28;20203;-82
2021/11/23 03:37:21;;;;;;;1.07;0.67;;;10.00;99.90;;;;;;4992405;28;20240;-83
2021/11/23 03:39:47;;;;;;;2.93;0.30;;;10.00;99.90;;;;;;4993070;28;20228;-82
2021/11/23 03:42:14;;;;;;;0.67;0.30;;;10.10;99.90;;;;;;4994781;28;20251;-83
2021/11/23 03:44:40;;;;;;;0.60;0.40;;;10.10;99.90;;;;;;4968887;28;20231;-82
2021/11/23 03:47:07;;;;;;;15.53;0.43;;;10.20;99.90;;;;;;4993237;28;20623;-82
2021/11/23 03:49:34;;;;;;;0.00;0.00;;;10.10;99.90;;;;;;4993561;28;20247;-82
2021/11/23 03:52:00;;;;;;;0.20;0.20;;;10.10;99.90;;;;;;4980065;28;20223;-82
2021/11/23 03:54:26;;;;;;;0.10;0.10;;;10.10;99.90;;;;;;4997463;28;20237;-81
2021/11/23 03:56:52;;;;;;;0.10;0.10;;;10.10;99.90;;;;;;4998348;28;20621;-82
2021/11/23 03:59:19;;;;;;;0.43;0.43;;;10.00;99.90;;;;;;4980294;28;20278;-82
2021/11/23 04:01:45;;;;;;;0.13;0.13;;;10.00;99.90;;;;;;4997623;28;20191;-82
2021/11/23 04:04:11;;;;;;;0.10;0.10;;;10.00;99.90;;;;;;4976324;28;20687;-83
2021/11/23 04:06:37;;;;;;;0.10;0.10;;;10.00;99.90;;;;;;4977928;28;20302;-81
2021/11/23 04:09:03;;;;;;;2.20;0.40;;;10.00;99.90;;;;;;4996330;28;20692;-82
2021/11/23 04:11:29;;;;;;;0.20;0.20;;;9.90;99.90;;;;;;4988623;28;20259;-82
2021/11/23 04:13:55;;;;;;;1.67;0.60;;;9.90;99.90;;;;;;4998065;28;20223;-82
2021/11/23 04:16:23;;;;;;;0.30;0.27;;;9.90;99.90;;;;;;4999119;28;20227;-83
2021/11/23 04:18:50;;;;;;;2.73;0.33;;;9.90;99.90;;;;;;4998528;28;20294;-83
2021/11/23 04:21:15;;;;;;;0.07;0.07;;;9.90;99.90;;;;;;4998504;28;20220;-82
2021/11/23 04:23:41;;;;;;;2.23;0.53;;;9.90;99.90;;;;;;4997822;28;20277;-82
2021/11/23 04:26:07;;;;;;;0.10;0.10;;;9.90;99.90;;;;;;4995913;28;20200;-82
2021/11/23 04:28:33;;;;;;;2.53;0.30;;;9.90;99.90;;;;;;4997044;28;20290;-83
2021/11/23 04:30:58;;;;;;;0.87;0.33;;;9.90;99.90;;;;;;4996969;28;20303;-82
2021/11/23 04:33:24;;;;;;;0.53;0.20;;;9.90;99.90;;;;;;4995467;28;20692;-81
2021/11/23 04:35:50;;;;;;;3.93;0.30;;;9.90;99.90;;;;;;4996369;28;21054;-82
2021/11/23 04:38:16;;;;;;;2.83;0.97;;;9.80;99.90;;;;;;4993807;28;20648;-83
2021/11/23 04:40:42;;;;;;;1.63;0.37;;;9.80;99.90;;;;;;4995257;28;20676;-83
2021/11/23 04:43:09;;;;;;;1.97;0.83;;;9.70;99.90;;;;;;4993420;28;20239;-83
2021/11/23 04:45:36;;;;;;;4.13;0.70;;;9.60;99.90;;;;;;4991723;28;20258;-83
2021/11/23 04:48:03;;;;;;;0.30;0.30;;;9.50;99.90;;;;;;4996116;28;20221;-82
2021/11/23 04:50:29;;;;;;;0.47;0.20;;;9.50;99.90;;;;;;4994193;28;20198;-82
2021/11/23 04:52:55;;;;;;;10.37;0.90;;;9.50;99.90;;;;;;4976526;28;20188;-82
2021/11/23 04:55:21;;;;;;;0.23;0.23;;;9.50;99.90;;;;;;4996892;28;20258;-82
2021/11/23 04:57:47;;;;;;;0.77;0.77;;;9.40;99.90;;;;;;4997207;28;20289;-82
2021/11/23 05:00:16;;;;;;;0.60;0.60;;;9.40;99.90;;;;;;4995334;28;20696;-82
2021/11/23 05:02:42;;;;;;;0.37;0.37;;;9.40;99.90;;;;;;4992212;28;20326;-82
2021/11/23 05:05:10;;;;;;;3.87;1.00;;;9.30;99.90;;;;;;4996694;28;20914;-80
2021/11/23 05:07:36;;;;;;;0.10;0.10;;;9.30;99.90;;;;;;4995107;28;20309;-84
2021/11/23 05:10:04;;;;;;;7.80;0.73;;;9.30;99.90;;;;;;4978454;28;20231;-83
2021/11/23 05:12:30;;;;;;;1.03;0.57;;;9.30;99.90;;;;;;4997969;28;20234;-81
2021/11/23 05:14:56;;;;;;;0.17;0.17;;;9.30;99.90;;;;;;4978718;28;21014;-83
2021/11/23 05:17:22;;;;;;;1.23;0.47;;;9.30;99.90;;;;;;4992407;28;20282;-83
2021/11/23 05:19:47;;;;;;;1.67;1.57;;;9.40;99.90;;;;;;4993216;28;20250;-83
2021/11/23 05:22:13;;;;;;;0.20;0.20;;;9.50;99.90;;;;;;4993085;28;20226;-82
2021/11/23 05:24:39;;;;;;;0.13;0.13;;;9.70;99.90;;;;;;4984367;28;20669;-81
2021/11/23 05:27:05;;;;;;;0.20;0.20;;;9.70;99.90;;;;;;4975762;28;20277;-81
2021/11/23 05:29:31;;;;;;;6.77;0.50;;;9.70;99.90;;;;;;4977533;28;20230;-80
2021/11/23 05:31:57;;;;;;;0.10;0.10;;;9.70;99.90;;;;;;4971032;28;20283;-81
2021/11/23 05:34:22;;;;;;;0.23;0.23;;;9.60;99.90;;;;;;4996997;28;20647;-80
2021/11/23 05:36:48;;;;;;;2.10;0.30;;;9.60;99.90;;;;;;4978957;28;20333;-80
2021/11/23 05:39:14;;;;;;;0.50;0.47;;;9.60;99.90;;;;;;4993835;28;20246;-80
2021/11/23 05:41:40;;;;;;;0.23;0.13;;;9.60;99.90;;;;;;4993832;28;20216;-81
2021/11/23 05:44:07;;;;;;;0.30;0.20;;;9.60;99.90;;;;;;4995448;28;20192;-83
2021/11/23 05:46:33;;;;;;;7.13;0.43;;;9.40;99.90;;;;;;4990066;28;20688;-80
2021/11/23 05:48:59;;;;;;;2.17;1.40;;;9.20;99.90;;;;;;4987162;28;20220;-82
2021/11/23 05:51:25;;;;;;;2.77;1.00;;;9.10;99.90;;;;;;5000485;28;20250;-82
2021/11/23 05:53:51;;;;;;;1.13;0.83;;;9.10;99.90;;;;;;4992556;28;20704;-82
2021/11/23 05:56:17;;;;;;;2.07;0.30;;;9.10;99.90;;;;;;4978899;28;20230;-82
2021/11/23 05:58:42;;;;;;;1.80;0.83;;;9.10;99.90;;;;;;4979461;28;20200;-82
2021/11/23 06:01:10;;;;;;;0.30;0.30;;;9.20;99.90;;;;;;4994715;28;20234;-82
2021/11/23 06:03:37;;;;;;;1.00;0.30;;;9.30;99.90;;;;;;4994683;28;20250;-82
2021/11/23 06:06:03;;;;;;;2.43;0.57;;;9.30;99.90;;;;;;4986730;28;20751;-83
2021/11/23 06:08:29;;;;;;;14.03;0.80;;;9.30;99.90;;;;;;4992272;28;20311;-82
2021/11/23 06:10:55;;;;;;;0.67;0.33;;;9.30;99.90;;;;;;4992068;28;20709;-83
2021/11/23 06:13:21;;;;;;;0.23;0.23;;;9.40;99.90;;;;;;4990459;28;20238;-83
2021/11/23 06:15:47;;;;;;;0.70;0.57;;;9.40;99.90;;;;;;4994619;28;20238;-81
2021/11/23 06:18:14;;;;;;;0.43;0.43;;;9.50;99.90;;;;;;4994203;28;20838;-83
2021/11/23 06:20:43;;;;;;;0.10;0.10;;;9.50;99.90;;;;;;4995402;28;20255;-81
2021/11/23 06:23:11;;;;;;;1.23;0.67;;;9.60;99.90;;;;;;4996003;28;20278;-84
2021/11/23 06:25:37;;;;;;;0.13;0.13;;;9.50;99.90;;;;;;4995687;28;20228;-84
2021/11/23 06:28:04;;;;;;;0.20;0.20;;;9.40;99.90;;;;;;4993933;28;20220;-83
2021/11/23 06:30:31;;;;;;;0.10;0.10;;;9.40;99.90;;;;;;4970443;28;20232;-83
2021/11/23 06:32:57;;;;;;;3.17;0.40;;;9.30;99.90;;;;;;4993675;28;20564;-81
2021/11/23 06:35:23;;;;;;;1.37;0.50;;;9.40;99.90;;;;;;4995558;28;20212;-81
2021/11/23 06:37:49;;;;;;;2.93;0.17;;;9.40;99.90;;;;;;4994133;28;20207;-82
2021/11/23 06:40:14;;;;;;;0.10;0.10;;;9.50;99.90;;;;;;5003476;28;20266;-81
2021/11/23 06:42:40;;;;;;;0.97;0.30;;;9.50;99.90;;;;;;4985647;28;20326;-81
2021/11/23 06:45:07;;;;;;;0.13;0.13;;;9.50;99.90;;;;;;4994351;28;20277;-81
2021/11/23 06:47:34;;;;;;;0.37;0.20;;;9.60;99.90;;;;;;4993092;28;20219;-82
2021/11/23 06:50:00;;;;;;;0.10;0.10;;;9.70;99.90;;;;;;4992092;28;20602;-82
2021/11/23 06:52:25;;;;;;;0.33;0.30;;;9.70;99.90;;;;;;4991462;28;20227;-83
2021/11/23 06:54:51;;;;;;;1.03;0.27;;;9.70;99.90;;;;;;4976770;28;20230;-83
2021/11/23 06:57:18;;;;;;;0.87;0.20;;;9.70;99.90;;;;;;4990304;28;20239;-82
2021/11/23 06:59:47;;;;;;;0.30;0.20;;;9.70;99.90;;;;;;4993890;28;20350;-81
2021/11/23 07:02:13;;;;;;;0.13;0.13;;;9.70;99.90;;;;;;4992707;28;20265;-81
2021/11/23 07:04:38;;;;;;;1.37;0.23;;;9.70;99.90;;;;;;4995576;28;20195;-81
2021/11/23 07:07:05;;;;;;;2.63;0.97;;;9.60;99.90;;;;;;4979049;28;21053;-83
2021/11/23 07:09:31;;;;;;;1.77;0.33;;;9.60;99.90;;;;;;4992017;28;20246;-81
2021/11/23 07:11:56;;;;;;;0.10;0.10;;;9.60;99.90;;;;;;4985306;28;20329;-81
2021/11/23 07:14:22;;;;;;;1.60;1.20;;;9.40;99.90;;;;;;4977177;28;20195;-81
2021/11/23 07:16:49;;;;;;;5.10;0.40;;;9.40;99.90;;;;;;4996866;28;20215;-83
2021/11/23 07:19:15;;;;;;;0.40;0.40;;;9.20;99.90;;;;;;4967620;28;21221;-83
2021/11/23 07:21:41;;;;;;;2.57;0.83;;;9.20;99.90;;;;;;4991442;28;20223;-84
2021/11/23 07:24:07;;;;;;;0.70;0.17;;;9.00;99.90;;;;;;4991804;28;20629;-84
2021/11/23 07:26:34;;;;;;;0.10;0.10;;;9.00;99.90;;;;;;4993785;28;20298;-83
2021/11/23 07:29:01;;;;;;;1.83;0.43;;;8.90;99.90;;;;;;4994371;28;21047;-81
2021/11/23 07:31:28;;;;;;;1.40;0.50;;;8.70;99.90;;;;;;4995439;28;20363;-84
2021/11/23 07:33:54;;;;;;;0.43;0.43;;;8.60;99.90;;;;;;4992835;28;20228;-82
2021/11/23 07:36:21;;;;;;;3.77;1.27;;;8.60;99.90;;;;;;4990629;28;20314;-82
2021/11/23 07:38:49;;;;;;;0.10;0.10;;;8.60;99.90;;;;;;4989981;28;20219;-82
2021/11/23 07:41:15;;;;;;;5.73;1.10;;;8.60;99.90;;;;;;4992169;28;20278;-83
2021/11/23 07:43:41;;;;;;;0.50;0.47;;;8.70;99.90;;;;;;4992582;28;20566;-82
2021/11/23 07:46:07;;;;;;;0.77;0.50;;;8.90;99.90;;;;;;4991963;28;21225;-83
2021/11/23 07:48:32;;;;;;;2.00;0.57;;;9.00;99.90;;;;;;4994875;28;20230;-84
2021/11/23 07:50:58;;;;;;;0.27;0.27;;;9.10;99.90;;;;;;4976974;28;20302;-82
2021/11/23 07:53:24;;;;;;;2.67;1.40;;;9.30;99.90;;;;;;4994547;28;20220;-82
2021/11/23 07:55:51;;;;;;;1.90;0.30;;;9.50;99.90;;;;;;4992014;28;20222;-82
2021/11/23 07:58:17;;;;;;;0.83;0.83;;;9.70;99.90;;;;;;4976529;28;20989;-83
2021/11/23 08:00:44;;;;;;;0.50;0.20;;;9.80;99.90;;;;;;4993707;28;20334;-85
2021/11/23 08:03:11;;;;;;;1.23;0.50;;;9.90;99.90;;;;;;4985884;28;20214;-86
2021/11/23 08:05:38;;;;;;;3.40;1.53;;;9.80;99.90;;;;;;4995687;28;20230;-82
2021/11/23 08:08:06;;;;;;;0.20;0.20;;;9.80;99.90;;;;;;4990681;28;20571;-83
2021/11/23 08:10:32;;;;;;;0.20;0.20;;;9.80;99.90;;;;;;4973734;28;20274;-82
2021/11/23 08:12:58;;;;;;;0.83;0.83;;;9.90;99.90;;;;;;4991179;28;20282;-85
2021/11/23 08:15:24;;;;;;;0.27;0.27;;;9.90;99.90;;;;;;4992253;28;20236;-84
2021/11/23 08:17:51;;;;;;;4.37;2.73;;;9.90;99.90;;;;;;4996557;28;20787;-83
2021/11/23 08:20:17;;;;;;;0.10;0.10;;;9.90;99.90;;;;;;4976670;28;20188;-84
2021/11/23 08:22:44;;;;;;;0.50;0.20;;;9.80;99.90;;;;;;4994628;28;20188;-83
2021/11/23 08:25:10;;;;;;;1.13;0.40;;;9.80;99.90;;;;;;4993788;28;20302;-83
2021/11/23 08:27:36;;;;;;;5.53;1.40;;;9.90;99.90;;;;;;4978577;28;20315;-83
2021/11/23 08:30:08;;;;;;;0.20;0.20;;;9.80;99.90;;;;;;4993837;28;21005;-86
2021/11/23 08:32:35;;;;;;;0.20;0.20;;;9.80;99.90;;;;;;4995847;28;20211;-83
2021/11/23 08:35:01;;;;;;;3.67;0.97;;;9.70;99.90;;;;;;4995848;28;21072;-83
2021/11/23 08:37:27;;;;;;;0.40;0.10;;;9.70;99.90;;;;;;4995074;28;20239;-84
2021/11/23 08:39:55;;;;;;;0.10;0.10;;;9.80;99.90;;;;;;4995647;28;20250;-85
2021/11/23 08:42:21;;;;;;;0.10;0.10;;;10.00;99.90;;;;;;4980013;28;20216;-85
2021/11/23 08:44:47;;;;;;;0.00;0.00;;;10.10;99.90;;;;;;4994375;28;20982;-84
2021/11/23 08:47:15;;;;;;;0.33;0.33;;;10.20;99.90;;;;;;4992491;28;20199;-84
2021/11/23 08:49:41;;;;;;;0.93;0.40;;;10.20;99.90;;;;;;4976565;28;20242;-84
2021/11/23 08:52:07;;;;;;;2.57;0.97;;;10.20;99.90;;;;;;4996775;28;20649;-84
2021/11/23 08:54:33;;;;;;;0.10;0.10;;;10.30;99.90;;;;;;4994580;28;20310;-83
2021/11/23 08:57:07;;;;;;;0.07;0.07;;;10.30;99.90;;;;;;4998266;28;20285;-84
2021/11/23 08:59:38;;;;;;;0.40;0.40;;;10.30;99.90;;;;;;4996156;28;20704;-82
2021/11/23 09:02:04;;;;;;;0.10;0.10;;;10.40;99.90;;;;;;4990292;28;20696;-82
2021/11/23 09:04:30;;;;;;;1.37;0.27;;;10.40;99.90;;;;;;4978173;28;20220;-83
2021/11/23 09:06:57;;;;;;;1.80;0.20;;;10.50;99.90;;;;;;4997457;28;20318;-83
2021/11/23 09:09:27;;;;;;;5.37;0.40;;;10.50;99.90;;;;;;4975471;28;20334;-82
2021/11/23 09:11:53;;;;;;;0.13;0.13;;;10.50;99.90;;;;;;4994432;28;20243;-85
2021/11/23 09:14:19;;;;;;;0.40;0.07;;;10.50;99.90;;;;;;4994748;28;20223;-84
2021/11/23 09:16:45;;;;;;;1.60;0.37;;;10.50;99.90;;;;;;4971679;28;20285;-83
2021/11/23 09:19:11;;;;;;;0.40;0.33;;;10.50;99.90;;;;;;4995983;28;20681;-83
2021/11/23 09:21:37;;;;;;;2.90;0.50;;;10.50;99.90;;;;;;4991428;28;20258;-84
2021/11/23 09:24:04;;;;;;;0.60;0.17;;;10.50;99.90;;;;;;4996224;28;20216;-83
2021/11/23 09:26:29;;;;;;;2.10;0.13;;;10.40;99.90;;;;;;4978490;28;20697;-83
2021/11/23 09:28:56;;;;;;;0.10;0.10;;;10.30;99.90;;;;;;4995631;28;20194;-85
2021/11/23 09:31:23;;;;;;;14.07;1.00;;;10.20;99.90;;;;;;4994667;28;20290;-85
2021/11/23 09:33:49;;;;;;;0.10;0.10;;;10.20;99.90;;;;;;4996032;28;20395;-83
2021/11/23 09:36:15;;;;;;;0.10;0.10;;;10.20;99.90;;;;;;4978163;28;20247;-84
2021/11/23 09:38:41;;;;;;;0.30;0.10;;;10.30;99.90;;;;;;4994531;28;20260;-85
2021/11/23 09:41:08;;;;;;;7.83;2.07;;;10.40;99.90;;;;;;4996423;28;20199;-84
2021/11/23 09:43:34;;;;;;;0.20;0.20;;;10.40;99.90;;;;;;4997850;28;20307;-85
2021/11/23 09:46:00;;;;;;;0.10;0.10;;;10.50;99.90;;;;;;4997494;28;20361;-84
2021/11/23 09:48:26;;;;;;;0.53;0.20;;;10.60;99.90;;;;;;4995540;28;20216;-85
2021/11/23 09:50:53;;;;;;;0.20;0.20;;;10.70;99.90;;;;;;4979409;28;20216;-85
2021/11/23 09:53:21;;;;;;;0.07;0.07;;;10.70;99.90;;;;;;4996317;28;20192;-84
2021/11/23 09:55:48;;;;;;;0.17;0.17;;;10.80;99.90;;;;;;5004072;28;20693;-84
2021/11/23 09:58:14;;;;;;;0.00;0.00;;;10.80;99.90;;;;;;5004831;28;20224;-83
2021/11/23 10:00:48;;;;;;;0.43;0.13;;;10.90;99.90;;;;;;4995312;28;20232;-83
2021/11/23 10:03:24;;;;;;;0.40;0.40;;;11.10;99.90;;;;;;4991299;28;20231;-85
2021/11/23 10:05:51;;;;;;;0.10;0.10;;;11.20;99.90;;;;;;4996125;28;20231;-85
2021/11/23 10:08:19;;;;;;;0.00;0.00;;;11.40;99.90;;;;;;4992051;28;20249;-85
2021/11/23 10:10:52;;;;;;;0.40;0.40;;;11.50;99.90;;;;;;4977352;28;20227;-85
2021/11/23 10:13:20;;;;;;;0.70;0.47;;;11.60;99.90;;;;;;4994971;28;20215;-84
2021/11/23 10:15:49;;;;;;;0.10;0.10;;;11.50;99.90;;;;;;4977063;28;20326;-84
2021/11/23 10:18:17;;;;;;;0.30;0.30;;;11.30;99.90;;;;;;4996055;28;20245;-84
2021/11/23 10:20:49;;;;;;;0.50;0.30;;;11.30;99.90;;;;;;4994323;28;20305;-85
2021/11/23 10:23:23;;;;;;;0.20;0.20;;;11.20;99.90;;;;;;4996563;28;20191;-85
2021/11/23 10:25:52;;;;;;;0.53;0.40;;;11.20;99.90;;;;;;4995606;28;20191;-83
2021/11/23 10:28:21;;;;;;;0.50;0.33;;;11.20;99.90;;;;;;4995369;28;20223;-83
2021/11/23 10:30:49;;;;;;;0.20;0.20;;;11.20;99.90;;;;;;4996041;28;20693;-84
2021/11/23 10:33:16;;;;;;;0.67;0.67;;;11.20;99.90;;;;;;4997523;28;20227;-84
2021/11/23 10:35:45;;;;;;;0.20;0.20;;;11.30;99.90;;;;;;4995110;28;20231;-83
2021/11/23 10:38:12;;;;;;;0.10;0.10;;;11.30;99.90;;;;;;4994272;28;20669;-84
2021/11/23 10:40:40;;;;;;;0.20;0.20;;;11.30;99.90;;;;;;4993474;28;20932;-85
2021/11/23 10:43:10;;;;;;;6.00;0.80;;;11.50;99.90;;;;;;4993234;28;20231;-83
2021/11/23 10:45:42;;;;;;;0.17;0.17;;;11.70;99.90;;;;;;4994145;28;20219;-84
2021/11/23 10:48:10;;;;;;;0.23;0.23;;;11.70;99.90;;;;;;4999902;28;20879;-83
2021/11/23 10:50:38;;;;;;;0.40;0.37;;;11.60;99.90;;;;;;5000687;28;20369;-82
2021/11/23 10:53:08;;;;;;;1.70;0.10;;;11.70;99.90;;;;;;4991968;28;20223;-84
2021/11/23 10:55:36;;;;;;;0.23;0.20;;;11.80;99.90;;;;;;5007715;28;20242;-84
2021/11/23 10:58:05;;;;;;;0.57;0.43;;;11.50;99.90;;;;;;4993770;28;20223;-83
2021/11/23 11:00:34;;;;;;;0.10;0.10;;;11.40;99.90;;;;;;4992114;28;20215;-85
2021/11/23 11:03:01;;;;;;;0.67;0.47;;;11.30;99.90;;;;;;4992443;28;20660;-83
2021/11/23 11:05:32;;;;;;;0.70;0.70;;;11.40;99.90;;;;;;4976484;28;20211;-83
2021/11/23 11:07:59;;;;;;;0.10;0.10;;;11.70;99.90;;;;;;4993947;28;20202;-85
2021/11/23 11:10:27;;;;;;;1.23;0.43;;;11.70;99.90;;;;;;4961804;28;20243;-82
2021/11/23 11:12:53;;;;;;;0.20;0.20;;;11.70;99.90;;;;;;4977187;28;20232;-81
2021/11/23 11:15:25;;;;;;;0.40;0.33;;;11.60;99.90;;;;;;4993224;28;20218;-80
2021/11/23 11:17:52;;;;;;;0.77;0.30;;;11.60;99.90;;;;;;4986336;28;20219;-82
2021/11/23 11:20:40;;;;;;;3.30;0.40;;;11.70;99.90;;;;;;4977904;28;20195;-81
2021/11/23 11:23:10;;;;;;;0.20;0.20;;;11.70;99.90;;;;;;4993947;28;20279;-82
2021/11/23 11:28:53;;;;;;;0.27;0.27;;;12.10;99.90;;;;;;4995422;28;20306;-82
2021/11/23 11:31:31;;;;;;;0.10;0.10;;;12.40;99.90;;;;;;4994186;28;20219;-84
2021/11/23 11:34:21;;;;;;;0.13;0.13;;;12.40;99.90;;;;;;4992398;28;20243;-81
2021/11/23 11:36:48;;;;;;;0.00;0.00;;;11.80;99.90;;;;;;5008151;28;20247;-79
2021/11/23 11:39:36;;;;;;;0.10;0.10;;;11.20;99.90;;;;;;4955246;28;20279;-82
2021/11/23 11:42:11;;;;;;;0.10;0.10;;;11.00;99.90;;;;;;4991140;28;20339;-81
2021/11/23 11:44:47;;;;;;;0.30;0.20;;;11.00;99.90;;;;;;4992231;28;20238;-82
2021/11/23 11:47:18;;;;;;;0.27;0.27;;;11.00;99.90;;;;;;4994211;28;20202;-84
2021/11/23 11:49:50;;;;;;;0.10;0.10;;;11.00;99.90;;;;;;4992362;28;20231;-83
2021/11/23 11:52:17;;;;;;;0.00;0.00;;;11.00;99.90;;;;;;5009342;28;20231;-82
2021/11/23 11:54:45;;;;;;;0.10;0.10;;;10.90;99.90;;;;;;4992657;28;20350;-84
2021/11/23 11:57:29;;;;;;;4.90;0.90;;;10.90;99.90;;;;;;4993664;28;20235;-82
2021/11/23 11:59:55;;;;;;;0.00;0.00;;;10.80;99.90;;;;;;4994052;28;20219;-83
2021/11/23 12:02:22;;;;;;;5.77;0.50;;;10.80;99.90;;;;;;4979707;28;20933;-84
2021/11/23 12:05:00;;;;;;;0.00;0.00;;;10.80;99.90;;;;;;4977134;28;20195;-86
2021/11/23 12:07:41;;;;;;;0.00;0.00;;;11.10;99.90;;;;;;4993319;28;20269;-84
2021/11/23 12:10:17;;;;;;;0.20;0.20;;;11.30;99.90;;;;;;4991181;28;20223;-85
2021/11/23 12:13:00;;;;;;;0.33;0.33;;;11.10;99.90;;;;;;4996337;28;20257;-85
2021/11/23 12:15:36;;;;;;;0.00;0.00;;;11.10;99.90;;;;;;4996741;28;20292;-85
2021/11/23 12:18:26;;;;;;;0.10;0.10;;;11.00;99.90;;;;;;4996148;28;20313;-82
2021/11/23 12:21:16;;;;;;;2.93;0.93;;;10.90;99.90;;;;;;4997373;28;20235;-86
2021/11/23 12:24:23;;;;;;;0.10;0.10;;;10.80;99.90;;;;;;4998542;28;20219;-85
2021/11/23 12:26:53;;;;;;;0.10;0.10;;;11.00;99.90;;;;;;4927942;29;20230;-85
2021/11/23 12:29:27;;;;;;;0.00;0.00;;;11.10;99.90;;;;;;4970625;28;20207;-84
2021/11/23 12:31:53;;;;;;;0.10;0.10;;;11.10;99.90;;;;;;4998440;28;20206;-84
2021/11/23 12:34:19;;;;;;;0.30;0.30;;;11.20;99.90;;;;;;4994396;28;20689;-84
2021/11/23 12:36:46;;;;;;;0.83;0.80;;;11.40;99.90;;;;;;5012778;28;20239;-85
2021/11/23 12:39:13;;;;;;;0.10;0.10;;;11.60;99.90;;;;;;4997061;28;20293;-84
2021/11/23 12:41:40;;;;;;;1.07;0.23;;;11.80;99.90;;;;;;4996839;28;20254;-85
2021/11/23 12:44:36;;;;;;;0.10;0.10;;;12.20;99.90;;;;;;4981254;28;20188;-84
2021/11/23 12:47:15;;;;;;;0.27;0.03;;;12.30;99.90;;;;;;4998069;28;20215;-83
2021/11/23 12:49:42;;;;;;;0.00;0.00;;;12.20;99.90;;;;;;4995760;28;20223;-84
2021/11/23 12:52:14;;;;;;;0.10;0.10;;;12.10;99.90;;;;;;4997401;28;20222;-82
2021/11/23 12:54:43;;;;;;;0.10;0.10;;;12.20;99.90;;;;;;5012351;28;20673;-84